sensor_id;sensor_type;location;lat;lon;timestamp;P1;durP1;ratioP1;P2;durP2;ratioP2
10661;SDS011;5379;51.034;7.006;2023-07-20T04:31:54;1.17;;;1.17;;
10661;SDS011;5379;51.034;7.006;2023-07-20T04:34:21;1.13;;;1.13;;
10661;SDS011;5379;51.034;7.006;2023-07-20T04:36:48;1.97;;;1.43;;
10661;SDS011;5379;51.034;7.006;2023-07-20T04:39:15;1.47;;;1.37;;
10661;SDS011;5379;51.034;7.006;2023-07-20T04:41:42;1.50;;;1.40;;
10661;SDS011;5379;51.034;7.006;2023-07-20T04:44:09;1.63;;;1.57;;
10661;SDS011;5379;51.034;7.006;2023-07-20T04:46:36;1.50;;;1.40;;
10661;SDS011;5379;51.034;7.006;2023-07-20T04:49:04;1.10;;;1.10;;
10661;SDS011;5379;51.034;7.006;2023-07-20T04:51:31;1.40;;;1.30;;
10661;SDS011;5379;51.034;7.006;2023-07-20T04:53:58;3.80;;;1.97;;
10661;SDS011;5379;51.034;7.006;2023-07-20T04:56:25;1.73;;;1.50;;
10661;SDS011;5379;51.034;7.006;2023-07-20T04:58:52;1.40;;;1.30;;
10661;SDS011;5379;51.034;7.006;2023-07-20T05:01:19;2.93;;;1.57;;
10661;SDS011;5379;51.034;7.006;2023-07-20T05:03:46;1.77;;;1.53;;
10661;SDS011;5379;51.034;7.006;2023-07-20T05:06:14;2.27;;;1.97;;
10661;SDS011;5379;51.034;7.006;2023-07-20T05:08:41;4.07;;;1.30;;
10661;SDS011;5379;51.034;7.006;2023-07-20T05:11:08;4.57;;;1.63;;
10661;SDS011;5379;51.034;7.006;2023-07-20T05:13:35;1.70;;;1.60;;
10661;SDS011;5379;51.034;7.006;2023-07-20T05:16:02;1.50;;;1.40;;
10661;SDS011;5379;51.034;7.006;2023-07-20T05:18:29;1.10;;;1.10;;
10661;SDS011;5379;51.034;7.006;2023-07-20T05:20:56;1.17;;;1.17;;
10661;SDS011;5379;51.034;7.006;2023-07-20T05:23:24;1.30;;;1.30;;
10661;SDS011;5379;51.034;7.006;2023-07-20T05:25:54;1.97;;;1.60;;
10661;SDS011;5379;51.034;7.006;2023-07-20T05:28:21;1.60;;;1.50;;
10661;SDS011;5379;51.034;7.006;2023-07-20T05:30:48;1.90;;;1.80;;
10661;SDS011;5379;51.034;7.006;2023-07-20T05:33:16;2.90;;;1.50;;
10661;SDS011;5379;51.034;7.006;2023-07-20T05:35:43;1.20;;;1.20;;
10661;SDS011;5379;51.034;7.006;2023-07-20T05:38:10;4.27;;;2.63;;
10661;SDS011;5379;51.034;7.006;2023-07-20T05:40:39;10.87;;;2.50;;
10661;SDS011;5379;51.034;7.006;2023-07-20T05:43:07;2.10;;;2.00;;
10661;SDS011;5379;51.034;7.006;2023-07-20T05:45:34;2.73;;;1.90;;
10661;SDS011;5379;51.034;7.006;2023-07-20T05:48:01;1.70;;;1.60;;
10661;SDS011;5379;51.034;7.006;2023-07-20T05:50:28;1.87;;;1.77;;
10661;SDS011;5379;51.034;7.006;2023-07-20T05:52:55;1.90;;;1.80;;
10661;SDS011;5379;51.034;7.006;2023-07-20T05:55:22;1.97;;;1.83;;
10661;SDS011;5379;51.034;7.006;2023-07-20T05:57:50;2.47;;;2.13;;
10661;SDS011;5379;51.034;7.006;2023-07-20T06:00:20;1.80;;;1.70;;
10661;SDS011;5379;51.034;7.006;2023-07-20T06:02:51;2.43;;;2.23;;
10661;SDS011;5379;51.034;7.006;2023-07-20T06:05:18;2.53;;;2.33;;
10661;SDS011;5379;51.034;7.006;2023-07-20T06:07:46;3.23;;;2.47;;
10661;SDS011;5379;51.034;7.006;2023-07-20T06:10:13;7.10;;;3.03;;
10661;SDS011;5379;51.034;7.006;2023-07-20T06:12:40;3.30;;;2.77;;
10661;SDS011;5379;51.034;7.006;2023-07-20T06:15:23;3.03;;;2.73;;
10661;SDS011;5379;51.034;7.006;2023-07-20T06:17:51;3.23;;;2.73;;
10661;SDS011;5379;51.034;7.006;2023-07-20T06:20:19;3.07;;;2.77;;
10661;SDS011;5379;51.034;7.006;2023-07-20T06:22:46;2.67;;;2.47;;
10661;SDS011;5379;51.034;7.006;2023-07-20T06:25:13;3.17;;;2.97;;
10661;SDS011;5379;51.034;7.006;2023-07-20T06:27:40;3.20;;;3.00;;
10661;SDS011;5379;51.034;7.006;2023-07-20T06:30:09;2.87;;;2.67;;
10661;SDS011;5379;51.034;7.006;2023-07-20T06:32:37;4.30;;;3.93;;
10661;SDS011;5379;51.034;7.006;2023-07-20T06:35:04;3.27;;;3.07;;
10661;SDS011;5379;51.034;7.006;2023-07-20T06:37:33;3.20;;;3.00;;
10661;SDS011;5379;51.034;7.006;2023-07-20T06:40:00;3.43;;;3.23;;
10661;SDS011;5379;51.034;7.006;2023-07-20T06:42:28;2.70;;;2.50;;
10661;SDS011;5379;51.034;7.006;2023-07-20T06:44:56;3.50;;;3.20;;
10661;SDS011;5379;51.034;7.006;2023-07-20T06:47:24;4.17;;;3.83;;
10661;SDS011;5379;51.034;7.006;2023-07-20T06:49:52;3.60;;;3.30;;
10661;SDS011;5379;51.034;7.006;2023-07-20T06:52:19;3.57;;;3.37;;
10661;SDS011;5379;51.034;7.006;2023-07-20T06:54:46;4.20;;;3.90;;
10661;SDS011;5379;51.034;7.006;2023-07-20T06:57:13;3.73;;;3.53;;
10661;SDS011;5379;51.034;7.006;2023-07-20T06:59:39;4.63;;;4.33;;
10661;SDS011;5379;51.034;7.006;2023-07-20T07:02:06;6.53;;;3.27;;
10661;SDS011;5379;51.034;7.006;2023-07-20T07:04:35;3.53;;;3.27;;
10661;SDS011;5379;51.034;7.006;2023-07-20T07:07:02;1.93;;;1.83;;
10661;SDS011;5379;51.034;7.006;2023-07-20T07:09:29;5.33;;;3.13;;
10661;SDS011;5379;51.034;7.006;2023-07-20T07:11:56;2.60;;;2.50;;
10661;SDS011;5379;51.034;7.006;2023-07-20T07:14:23;3.93;;;3.63;;
10661;SDS011;5379;51.034;7.006;2023-07-20T07:16:50;3.40;;;3.10;;
10661;SDS011;5379;51.034;7.006;2023-07-20T07:19:16;3.10;;;2.90;;
10661;SDS011;5379;51.034;7.006;2023-07-20T07:21:45;3.30;;;3.03;;
10661;SDS011;5379;51.034;7.006;2023-07-20T07:24:12;3.00;;;2.80;;
10661;SDS011;5379;51.034;7.006;2023-07-20T07:26:39;2.53;;;2.40;;
10661;SDS011;5379;51.034;7.006;2023-07-20T07:29:06;2.80;;;2.60;;
10661;SDS011;5379;51.034;7.006;2023-07-20T07:31:33;2.30;;;2.20;;
10661;SDS011;5379;51.034;7.006;2023-07-20T07:34:01;2.47;;;2.00;;
10661;SDS011;5379;51.034;7.006;2023-07-20T07:36:28;2.63;;;2.43;;
10661;SDS011;5379;51.034;7.006;2023-07-20T07:38:56;3.10;;;2.37;;
10661;SDS011;5379;51.034;7.006;2023-07-20T07:41:25;2.60;;;2.40;;
10661;SDS011;5379;51.034;7.006;2023-07-20T07:43:51;1.80;;;1.70;;
10661;SDS011;5379;51.034;7.006;2023-07-20T07:46:18;3.00;;;2.90;;
10661;SDS011;5379;51.034;7.006;2023-07-20T07:48:45;2.37;;;2.20;;
10661;SDS011;5379;51.034;7.006;2023-07-20T07:51:12;1.40;;;1.40;;
10661;SDS011;5379;51.034;7.006;2023-07-20T07:53:40;1.80;;;1.70;;
10661;SDS011;5379;51.034;7.006;2023-07-20T07:56:10;1.97;;;1.83;;
10661;SDS011;5379;51.034;7.006;2023-07-20T07:58:36;1.20;;;1.20;;
10661;SDS011;5379;51.034;7.006;2023-07-20T08:01:04;1.93;;;1.83;;
10661;SDS011;5379;51.034;7.006;2023-07-20T08:03:31;2.60;;;2.13;;
10661;SDS011;5379;51.034;7.006;2023-07-20T08:05:58;1.70;;;1.60;;
10661;SDS011;5379;51.034;7.006;2023-07-20T08:08:25;2.00;;;1.90;;
10661;SDS011;5379;51.034;7.006;2023-07-20T08:10:53;1.33;;;1.33;;
10661;SDS011;5379;51.034;7.006;2023-07-20T08:13:21;1.67;;;1.57;;
10661;SDS011;5379;51.034;7.006;2023-07-20T08:15:49;8.60;;;1.63;;
10661;SDS011;5379;51.034;7.006;2023-07-20T08:18:17;1.57;;;1.57;;
10661;SDS011;5379;51.034;7.006;2023-07-20T08:20:44;1.47;;;1.40;;
10661;SDS011;5379;51.034;7.006;2023-07-20T08:23:11;1.77;;;1.63;;
10661;SDS011;5379;51.034;7.006;2023-07-20T08:25:38;1.93;;;1.83;;
10661;SDS011;5379;51.034;7.006;2023-07-20T08:28:09;1.63;;;1.10;;
10661;SDS011;5379;51.034;7.006;2023-07-20T08:30:40;1.70;;;1.57;;
10661;SDS011;5379;51.034;7.006;2023-07-20T08:33:09;1.40;;;1.40;;
10661;SDS011;5379;51.034;7.006;2023-07-20T08:35:36;1.67;;;1.57;;
10661;SDS011;5379;51.034;7.006;2023-07-20T08:38:03;2.43;;;1.40;;
10661;SDS011;5379;51.034;7.006;2023-07-20T08:40:31;1.13;;;1.13;;
10661;SDS011;5379;51.034;7.006;2023-07-20T08:42:58;1.20;;;1.20;;
10661;SDS011;5379;51.034;7.006;2023-07-20T08:45:25;4.03;;;1.63;;
10661;SDS011;5379;51.034;7.006;2023-07-20T08:47:55;1.00;;;1.00;;
10661;SDS011;5379;51.034;7.006;2023-07-20T08:50:25;1.00;;;1.00;;
10661;SDS011;5379;51.034;7.006;2023-07-20T08:52:53;0.60;;;0.60;;
10661;SDS011;5379;51.034;7.006;2023-07-20T08:55:21;0.57;;;0.57;;
10661;SDS011;5379;51.034;7.006;2023-07-20T08:57:49;0.50;;;0.50;;
10661;SDS011;5379;51.034;7.006;2023-07-20T09:00:19;1.10;;;0.80;;
10661;SDS011;5379;51.034;7.006;2023-07-20T09:02:49;0.77;;;0.77;;
10661;SDS011;5379;51.034;7.006;2023-07-20T09:05:18;0.90;;;0.90;;
10661;SDS011;5379;51.034;7.006;2023-07-20T09:07:45;0.73;;;0.73;;
10661;SDS011;5379;51.034;7.006;2023-07-20T09:10:12;0.60;;;0.60;;
10661;SDS011;5379;51.034;7.006;2023-07-20T09:12:40;3.00;;;0.90;;
10661;SDS011;5379;51.034;7.006;2023-07-20T09:15:08;0.67;;;0.67;;
10661;SDS011;5379;51.034;7.006;2023-07-20T09:17:36;0.83;;;0.70;;
10661;SDS011;5379;51.034;7.006;2023-07-20T09:20:04;0.83;;;0.63;;
10661;SDS011;5379;51.034;7.006;2023-07-20T09:22:36;0.50;;;0.50;;
10661;SDS011;5379;51.034;7.006;2023-07-20T09:25:05;0.40;;;0.40;;
10661;SDS011;5379;51.034;7.006;2023-07-20T09:27:34;0.60;;;0.50;;
10661;SDS011;5379;51.034;7.006;2023-07-20T09:30:02;0.40;;;0.40;;
10661;SDS011;5379;51.034;7.006;2023-07-20T09:32:32;0.57;;;0.57;;
10661;SDS011;5379;51.034;7.006;2023-07-20T09:35:05;0.93;;;0.90;;
10661;SDS011;5379;51.034;7.006;2023-07-20T09:37:33;0.60;;;0.60;;
10661;SDS011;5379;51.034;7.006;2023-07-20T09:40:02;0.63;;;0.63;;
10661;SDS011;5379;51.034;7.006;2023-07-20T09:42:34;0.67;;;0.67;;
10661;SDS011;5379;51.034;7.006;2023-07-20T09:45:03;0.60;;;0.60;;
10661;SDS011;5379;51.034;7.006;2023-07-20T09:47:34;0.60;;;0.60;;
10661;SDS011;5379;51.034;7.006;2023-07-20T09:50:03;0.30;;;0.30;;
10661;SDS011;5379;51.034;7.006;2023-07-20T09:52:35;0.50;;;0.50;;
10661;SDS011;5379;51.034;7.006;2023-07-20T09:55:06;0.53;;;0.53;;
10661;SDS011;5379;51.034;7.006;2023-07-20T09:57:33;0.77;;;0.67;;
10661;SDS011;5379;51.034;7.006;2023-07-20T10:00:02;0.67;;;0.67;;
10661;SDS011;5379;51.034;7.006;2023-07-20T10:02:34;0.53;;;0.53;;
10661;SDS011;5379;51.034;7.006;2023-07-20T10:05:07;0.70;;;0.70;;
10661;SDS011;5379;51.034;7.006;2023-07-20T10:07:35;0.60;;;0.60;;
10661;SDS011;5379;51.034;7.006;2023-07-20T10:10:08;0.50;;;0.50;;
10661;SDS011;5379;51.034;7.006;2023-07-20T10:12:37;0.80;;;0.80;;
10661;SDS011;5379;51.034;7.006;2023-07-20T10:15:10;0.40;;;0.40;;
10661;SDS011;5379;51.034;7.006;2023-07-20T10:17:44;0.50;;;0.50;;
10661;SDS011;5379;51.034;7.006;2023-07-20T10:20:18;0.40;;;0.40;;
10661;SDS011;5379;51.034;7.006;2023-07-20T10:22:47;0.37;;;0.37;;
10661;SDS011;5379;51.034;7.006;2023-07-20T10:25:17;0.70;;;0.60;;
10661;SDS011;5379;51.034;7.006;2023-07-20T10:27:46;0.53;;;0.53;;
10661;SDS011;5379;51.034;7.006;2023-07-20T10:30:14;0.50;;;0.50;;
10661;SDS011;5379;51.034;7.006;2023-07-20T10:32:44;0.30;;;0.30;;
10661;SDS011;5379;51.034;7.006;2023-07-20T10:35:12;0.40;;;0.40;;
10661;SDS011;5379;51.034;7.006;2023-07-20T10:37:51;0.97;;;0.60;;
10661;SDS011;5379;51.034;7.006;2023-07-20T10:40:32;0.30;;;0.30;;
10661;SDS011;5379;51.034;7.006;2023-07-20T10:43:06;1.00;;;0.60;;
10661;SDS011;5379;51.034;7.006;2023-07-20T10:45:39;0.50;;;0.50;;
10661;SDS011;5379;51.034;7.006;2023-07-20T10:48:17;1.53;;;0.60;;
10661;SDS011;5379;51.034;7.006;2023-07-20T10:50:45;0.40;;;0.40;;
10661;SDS011;5379;51.034;7.006;2023-07-20T10:53:32;0.60;;;0.60;;
10661;SDS011;5379;51.034;7.006;2023-07-20T10:56:08;2.20;;;1.20;;
10661;SDS011;5379;51.034;7.006;2023-07-20T10:58:37;0.40;;;0.40;;
10661;SDS011;5379;51.034;7.006;2023-07-20T11:01:04;0.37;;;0.37;;
10661;SDS011;5379;51.034;7.006;2023-07-20T11:03:32;0.90;;;0.40;;
10661;SDS011;5379;51.034;7.006;2023-07-20T11:06:05;0.57;;;0.57;;
10661;SDS011;5379;51.034;7.006;2023-07-20T11:09:07;0.30;;;0.30;;
10661;SDS011;5379;51.034;7.006;2023-07-20T11:11:36;0.20;;;0.20;;
10661;SDS011;5379;51.034;7.006;2023-07-20T11:14:04;0.37;;;0.37;;
10661;SDS011;5379;51.034;7.006;2023-07-20T11:16:33;0.33;;;0.33;;
10661;SDS011;5379;51.034;7.006;2023-07-20T11:19:02;0.33;;;0.33;;
10661;SDS011;5379;51.034;7.006;2023-07-20T11:21:31;0.40;;;0.40;;
10661;SDS011;5379;51.034;7.006;2023-07-20T11:24:03;0.20;;;0.20;;
10661;SDS011;5379;51.034;7.006;2023-07-20T11:26:39;0.60;;;0.60;;
10661;SDS011;5379;51.034;7.006;2023-07-20T11:29:06;1.17;;;0.60;;
10661;SDS011;5379;51.034;7.006;2023-07-20T11:31:34;0.47;;;0.47;;
10661;SDS011;5379;51.034;7.006;2023-07-20T11:34:02;0.50;;;0.20;;
10661;SDS011;5379;51.034;7.006;2023-07-20T11:36:29;0.40;;;0.40;;
10661;SDS011;5379;51.034;7.006;2023-07-20T11:38:58;0.20;;;0.20;;
10661;SDS011;5379;51.034;7.006;2023-07-20T11:41:25;0.30;;;0.30;;
10661;SDS011;5379;51.034;7.006;2023-07-20T11:43:52;0.40;;;0.40;;
10661;SDS011;5379;51.034;7.006;2023-07-20T11:46:20;0.20;;;0.20;;
10661;SDS011;5379;51.034;7.006;2023-07-20T11:48:47;0.53;;;0.30;;
10661;SDS011;5379;51.034;7.006;2023-07-20T11:51:14;0.43;;;0.43;;
10661;SDS011;5379;51.034;7.006;2023-07-20T11:53:42;0.37;;;0.37;;
10661;SDS011;5379;51.034;7.006;2023-07-20T11:56:12;0.67;;;0.17;;
10661;SDS011;5379;51.034;7.006;2023-07-20T11:58:43;0.37;;;0.37;;
10661;SDS011;5379;51.034;7.006;2023-07-20T12:01:11;0.30;;;0.30;;
10661;SDS011;5379;51.034;7.006;2023-07-20T12:03:38;0.30;;;0.30;;
10661;SDS011;5379;51.034;7.006;2023-07-20T12:06:06;0.40;;;0.40;;
10661;SDS011;5379;51.034;7.006;2023-07-20T12:08:33;0.20;;;0.20;;
10661;SDS011;5379;51.034;7.006;2023-07-20T12:11:01;0.17;;;0.17;;
10661;SDS011;5379;51.034;7.006;2023-07-20T12:13:40;0.43;;;0.43;;
10661;SDS011;5379;51.034;7.006;2023-07-20T12:16:10;0.13;;;0.13;;
10661;SDS011;5379;51.034;7.006;2023-07-20T12:18:37;0.20;;;0.20;;
10661;SDS011;5379;51.034;7.006;2023-07-20T12:21:05;0.40;;;0.40;;
10661;SDS011;5379;51.034;7.006;2023-07-20T12:23:37;0.20;;;0.20;;
10661;SDS011;5379;51.034;7.006;2023-07-20T12:26:08;0.20;;;0.20;;
10661;SDS011;5379;51.034;7.006;2023-07-20T12:28:36;0.33;;;0.30;;
10661;SDS011;5379;51.034;7.006;2023-07-20T12:31:07;0.70;;;0.50;;
10661;SDS011;5379;51.034;7.006;2023-07-20T12:33:34;0.20;;;0.20;;
10661;SDS011;5379;51.034;7.006;2023-07-20T12:36:01;0.17;;;0.17;;
10661;SDS011;5379;51.034;7.006;2023-07-20T12:38:29;0.23;;;0.23;;
10661;SDS011;5379;51.034;7.006;2023-07-20T12:40:57;0.30;;;0.30;;
10661;SDS011;5379;51.034;7.006;2023-07-20T12:43:25;0.53;;;0.43;;
10661;SDS011;5379;51.034;7.006;2023-07-20T12:45:53;0.90;;;0.90;;
10661;SDS011;5379;51.034;7.006;2023-07-20T12:48:21;0.40;;;0.40;;
10661;SDS011;5379;51.034;7.006;2023-07-20T12:50:48;0.30;;;0.30;;
10661;SDS011;5379;51.034;7.006;2023-07-20T12:53:15;1.00;;;0.53;;
10661;SDS011;5379;51.034;7.006;2023-07-20T12:55:42;0.20;;;0.00;;
10661;SDS011;5379;51.034;7.006;2023-07-20T12:58:10;0.90;;;0.40;;
10661;SDS011;5379;51.034;7.006;2023-07-20T13:10:45;0.50;;;0.50;;
10661;SDS011;5379;51.034;7.006;2023-07-20T13:13:13;0.60;;;0.37;;
10661;SDS011;5379;51.034;7.006;2023-07-20T13:15:41;0.10;;;0.10;;
10661;SDS011;5379;51.034;7.006;2023-07-20T13:18:09;0.50;;;0.50;;
10661;SDS011;5379;51.034;7.006;2023-07-20T13:20:41;0.30;;;0.30;;
10661;SDS011;5379;51.034;7.006;2023-07-20T13:24:12;0.27;;;0.27;;
10661;SDS011;5379;51.034;7.006;2023-07-20T13:32:33;0.20;;;0.20;;
10661;SDS011;5379;51.034;7.006;2023-07-20T13:38:13;0.40;;;0.40;;
10661;SDS011;5379;51.034;7.006;2023-07-20T13:40:47;0.60;;;0.20;;
10661;SDS011;5379;51.034;7.006;2023-07-20T13:43:20;0.30;;;0.30;;
10661;SDS011;5379;51.034;7.006;2023-07-20T13:45:51;0.40;;;0.40;;
10661;SDS011;5379;51.034;7.006;2023-07-20T13:48:21;0.33;;;0.33;;
10661;SDS011;5379;51.034;7.006;2023-07-20T13:50:54;0.20;;;0.20;;
10661;SDS011;5379;51.034;7.006;2023-07-20T13:53:21;1.30;;;0.50;;
10661;SDS011;5379;51.034;7.006;2023-07-20T13:55:48;0.70;;;0.40;;
10661;SDS011;5379;51.034;7.006;2023-07-20T13:58:15;0.40;;;0.30;;
10661;SDS011;5379;51.034;7.006;2023-07-20T14:00:43;0.40;;;0.40;;
10661;SDS011;5379;51.034;7.006;2023-07-20T14:03:10;0.30;;;0.30;;
10661;SDS011;5379;51.034;7.006;2023-07-20T14:05:37;0.97;;;0.60;;
10661;SDS011;5379;51.034;7.006;2023-07-20T14:08:04;0.60;;;0.60;;
10661;SDS011;5379;51.034;7.006;2023-07-20T14:10:31;3.10;;;1.13;;
10661;SDS011;5379;51.034;7.006;2023-07-20T14:12:58;0.40;;;0.40;;
10661;SDS011;5379;51.034;7.006;2023-07-20T14:15:25;0.30;;;0.30;;
10661;SDS011;5379;51.034;7.006;2023-07-20T14:17:53;0.20;;;0.20;;
10661;SDS011;5379;51.034;7.006;2023-07-20T14:20:20;0.53;;;0.53;;
10661;SDS011;5379;51.034;7.006;2023-07-20T14:22:47;0.37;;;0.37;;
10661;SDS011;5379;51.034;7.006;2023-07-20T14:25:14;0.40;;;0.40;;
10661;SDS011;5379;51.034;7.006;2023-07-20T14:27:41;0.47;;;0.30;;
10661;SDS011;5379;51.034;7.006;2023-07-20T14:30:08;0.20;;;0.20;;
10661;SDS011;5379;51.034;7.006;2023-07-20T14:32:36;0.60;;;0.60;;
10661;SDS011;5379;51.034;7.006;2023-07-20T14:35:05;0.53;;;0.53;;
10661;SDS011;5379;51.034;7.006;2023-07-20T14:37:32;0.57;;;0.57;;
10661;SDS011;5379;51.034;7.006;2023-07-20T14:39:59;0.23;;;0.23;;
10661;SDS011;5379;51.034;7.006;2023-07-20T14:42:30;0.30;;;0.30;;
10661;SDS011;5379;51.034;7.006;2023-07-20T14:44:57;0.40;;;0.40;;
10661;SDS011;5379;51.034;7.006;2023-07-20T14:47:24;2.07;;;1.47;;
10661;SDS011;5379;51.034;7.006;2023-07-20T14:49:51;0.90;;;0.63;;
10661;SDS011;5379;51.034;7.006;2023-07-20T14:52:19;0.50;;;0.50;;
10661;SDS011;5379;51.034;7.006;2023-07-20T14:54:46;0.53;;;0.53;;
10661;SDS011;5379;51.034;7.006;2023-07-20T14:57:13;6.80;;;0.70;;
10661;SDS011;5379;51.034;7.006;2023-07-20T14:59:40;7.13;;;0.80;;
10661;SDS011;5379;51.034;7.006;2023-07-20T15:08:16;0.47;;;0.47;;
10661;SDS011;5379;51.034;7.006;2023-07-20T15:11:02;0.30;;;0.30;;
10661;SDS011;5379;51.034;7.006;2023-07-20T15:13:44;0.50;;;0.50;;
10661;SDS011;5379;51.034;7.006;2023-07-20T15:16:11;0.50;;;0.50;;
10661;SDS011;5379;51.034;7.006;2023-07-20T15:18:38;0.40;;;0.40;;
10661;SDS011;5379;51.034;7.006;2023-07-20T15:21:04;0.23;;;0.23;;
10661;SDS011;5379;51.034;7.006;2023-07-20T15:23:33;0.23;;;0.23;;
10661;SDS011;5379;51.034;7.006;2023-07-20T15:26:00;0.20;;;0.20;;
10661;SDS011;5379;51.034;7.006;2023-07-20T15:28:27;0.30;;;0.30;;
10661;SDS011;5379;51.034;7.006;2023-07-20T15:30:58;0.87;;;0.37;;
10661;SDS011;5379;51.034;7.006;2023-07-20T15:33:26;0.73;;;0.57;;
10661;SDS011;5379;51.034;7.006;2023-07-20T15:35:53;3.60;;;0.50;;
10661;SDS011;5379;51.034;7.006;2023-07-20T15:38:20;0.23;;;0.23;;
10661;SDS011;5379;51.034;7.006;2023-07-20T15:40:49;0.37;;;0.37;;
10661;SDS011;5379;51.034;7.006;2023-07-20T15:43:16;0.30;;;0.30;;
10661;SDS011;5379;51.034;7.006;2023-07-20T15:45:46;0.30;;;0.30;;
10661;SDS011;5379;51.034;7.006;2023-07-20T15:48:14;0.30;;;0.30;;
10661;SDS011;5379;51.034;7.006;2023-07-20T15:50:41;0.40;;;0.40;;
10661;SDS011;5379;51.034;7.006;2023-07-20T15:53:09;1.37;;;1.13;;
10661;SDS011;5379;51.034;7.006;2023-07-20T15:55:36;1.03;;;0.70;;
10661;SDS011;5379;51.034;7.006;2023-07-20T15:58:04;0.30;;;0.30;;
10661;SDS011;5379;51.034;7.006;2023-07-20T16:00:31;0.47;;;0.40;;
10661;SDS011;5379;51.034;7.006;2023-07-20T16:02:58;3.40;;;0.80;;
10661;SDS011;5379;51.034;7.006;2023-07-20T16:05:25;0.60;;;0.60;;
10661;SDS011;5379;51.034;7.006;2023-07-20T16:07:52;0.30;;;0.30;;
10661;SDS011;5379;51.034;7.006;2023-07-20T16:10:19;0.63;;;0.40;;
10661;SDS011;5379;51.034;7.006;2023-07-20T16:12:46;0.40;;;0.40;;
10661;SDS011;5379;51.034;7.006;2023-07-20T16:15:14;0.50;;;0.50;;
10661;SDS011;5379;51.034;7.006;2023-07-20T16:17:41;0.23;;;0.23;;
10661;SDS011;5379;51.034;7.006;2023-07-20T16:20:08;0.37;;;0.37;;
10661;SDS011;5379;51.034;7.006;2023-07-20T16:22:36;0.30;;;0.30;;
10661;SDS011;5379;51.034;7.006;2023-07-20T16:25:03;0.20;;;0.20;;
10661;SDS011;5379;51.034;7.006;2023-07-20T16:27:31;1.10;;;0.33;;
10661;SDS011;5379;51.034;7.006;2023-07-20T16:29:58;0.37;;;0.37;;
10661;SDS011;5379;51.034;7.006;2023-07-20T16:32:26;0.30;;;0.30;;
10661;SDS011;5379;51.034;7.006;2023-07-20T16:34:53;1.13;;;0.63;;
10661;SDS011;5379;51.034;7.006;2023-07-20T16:37:20;0.30;;;0.30;;
10661;SDS011;5379;51.034;7.006;2023-07-20T16:39:49;0.23;;;0.23;;
10661;SDS011;5379;51.034;7.006;2023-07-20T16:42:17;0.40;;;0.40;;
10661;SDS011;5379;51.034;7.006;2023-07-20T16:44:48;0.23;;;0.23;;
10661;SDS011;5379;51.034;7.006;2023-07-20T16:47:16;1.27;;;0.50;;
10661;SDS011;5379;51.034;7.006;2023-07-20T16:49:44;0.40;;;0.40;;
10661;SDS011;5379;51.034;7.006;2023-07-20T16:52:11;0.37;;;0.37;;
10661;SDS011;5379;51.034;7.006;2023-07-20T16:54:38;0.30;;;0.30;;
10661;SDS011;5379;51.034;7.006;2023-07-20T16:57:05;0.50;;;0.50;;
10661;SDS011;5379;51.034;7.006;2023-07-20T16:59:33;0.40;;;0.40;;
10661;SDS011;5379;51.034;7.006;2023-07-20T17:02:00;0.50;;;0.50;;
10661;SDS011;5379;51.034;7.006;2023-07-20T17:04:27;0.37;;;0.37;;
10661;SDS011;5379;51.034;7.006;2023-07-20T17:06:56;0.37;;;0.37;;
10661;SDS011;5379;51.034;7.006;2023-07-20T17:09:24;0.10;;;0.10;;
10661;SDS011;5379;51.034;7.006;2023-07-20T17:11:52;0.23;;;0.23;;
10661;SDS011;5379;51.034;7.006;2023-07-20T17:14:19;0.57;;;0.57;;
10661;SDS011;5379;51.034;7.006;2023-07-20T17:16:46;0.20;;;0.20;;
10661;SDS011;5379;51.034;7.006;2023-07-20T17:19:13;0.37;;;0.37;;
10661;SDS011;5379;51.034;7.006;2023-07-20T17:21:41;0.10;;;0.10;;
10661;SDS011;5379;51.034;7.006;2023-07-20T17:27:29;0.60;;;0.60;;
10661;SDS011;5379;51.034;7.006;2023-07-20T17:29:57;0.40;;;0.40;;
10661;SDS011;5379;51.034;7.006;2023-07-20T17:32:25;1.20;;;0.37;;
10661;SDS011;5379;51.034;7.006;2023-07-20T17:34:55;0.30;;;0.30;;
10661;SDS011;5379;51.034;7.006;2023-07-20T17:37:24;0.40;;;0.40;;
10661;SDS011;5379;51.034;7.006;2023-07-20T17:40:10;0.97;;;0.57;;
10661;SDS011;5379;51.034;7.006;2023-07-20T17:42:38;0.37;;;0.37;;
10661;SDS011;5379;51.034;7.006;2023-07-20T17:45:07;0.20;;;0.20;;
10661;SDS011;5379;51.034;7.006;2023-07-20T17:47:36;0.50;;;0.50;;
10661;SDS011;5379;51.034;7.006;2023-07-20T17:50:05;0.30;;;0.30;;
10661;SDS011;5379;51.034;7.006;2023-07-20T17:52:36;0.30;;;0.30;;
10661;SDS011;5379;51.034;7.006;2023-07-20T17:55:03;0.50;;;0.30;;
10661;SDS011;5379;51.034;7.006;2023-07-20T17:57:32;0.30;;;0.30;;
10661;SDS011;5379;51.034;7.006;2023-07-20T17:59:59;0.70;;;0.70;;
10661;SDS011;5379;51.034;7.006;2023-07-20T18:02:26;0.57;;;0.57;;
10661;SDS011;5379;51.034;7.006;2023-07-20T18:04:53;0.37;;;0.37;;
10661;SDS011;5379;51.034;7.006;2023-07-20T18:07:20;0.20;;;0.20;;
10661;SDS011;5379;51.034;7.006;2023-07-20T18:09:47;0.37;;;0.37;;
10661;SDS011;5379;51.034;7.006;2023-07-20T18:12:14;0.83;;;0.73;;
10661;SDS011;5379;51.034;7.006;2023-07-20T18:14:43;0.30;;;0.30;;
10661;SDS011;5379;51.034;7.006;2023-07-20T18:17:10;0.30;;;0.30;;
10661;SDS011;5379;51.034;7.006;2023-07-20T18:19:37;0.30;;;0.30;;
10661;SDS011;5379;51.034;7.006;2023-07-20T18:22:04;2.57;;;0.63;;
10661;SDS011;5379;51.034;7.006;2023-07-20T18:24:31;0.50;;;0.50;;
10661;SDS011;5379;51.034;7.006;2023-07-20T18:26:58;0.47;;;0.40;;
10661;SDS011;5379;51.034;7.006;2023-07-20T18:29:25;0.50;;;0.50;;
10661;SDS011;5379;51.034;7.006;2023-07-20T18:31:53;0.60;;;0.60;;
10661;SDS011;5379;51.034;7.006;2023-07-20T18:34:20;1.40;;;0.67;;
10661;SDS011;5379;51.034;7.006;2023-07-20T18:36:47;0.50;;;0.50;;
10661;SDS011;5379;51.034;7.006;2023-07-20T18:39:14;0.60;;;0.60;;
10661;SDS011;5379;51.034;7.006;2023-07-20T18:41:42;0.70;;;0.70;;
10661;SDS011;5379;51.034;7.006;2023-07-20T18:44:09;0.70;;;0.70;;
10661;SDS011;5379;51.034;7.006;2023-07-20T18:46:36;0.27;;;0.27;;
10661;SDS011;5379;51.034;7.006;2023-07-20T18:49:04;0.40;;;0.40;;
10661;SDS011;5379;51.034;7.006;2023-07-20T18:51:31;2.37;;;0.80;;
10661;SDS011;5379;51.034;7.006;2023-07-20T18:53:58;0.40;;;0.40;;
10661;SDS011;5379;51.034;7.006;2023-07-20T18:56:25;0.50;;;0.50;;
10661;SDS011;5379;51.034;7.006;2023-07-20T18:58:52;0.50;;;0.50;;
10661;SDS011;5379;51.034;7.006;2023-07-20T19:01:19;0.40;;;0.40;;
10661;SDS011;5379;51.034;7.006;2023-07-20T19:03:46;0.67;;;0.67;;
10661;SDS011;5379;51.034;7.006;2023-07-20T19:06:14;0.63;;;0.63;;
10661;SDS011;5379;51.034;7.006;2023-07-20T19:08:41;0.47;;;0.47;;
10661;SDS011;5379;51.034;7.006;2023-07-20T19:11:08;0.30;;;0.30;;
10661;SDS011;5379;51.034;7.006;2023-07-20T19:13:36;0.60;;;0.60;;
10661;SDS011;5379;51.034;7.006;2023-07-20T19:16:03;2.77;;;0.70;;
10661;SDS011;5379;51.034;7.006;2023-07-20T19:18:32;0.73;;;0.50;;
10661;SDS011;5379;51.034;7.006;2023-07-20T19:21:02;4.00;;;1.00;;
10661;SDS011;5379;51.034;7.006;2023-07-20T19:23:31;0.60;;;0.60;;
10661;SDS011;5379;51.034;7.006;2023-07-20T19:25:58;0.50;;;0.50;;
10661;SDS011;5379;51.034;7.006;2023-07-20T19:28:25;0.20;;;0.20;;
10661;SDS011;5379;51.034;7.006;2023-07-20T19:30:52;0.60;;;0.60;;
10661;SDS011;5379;51.034;7.006;2023-07-20T19:33:18;0.53;;;0.53;;
10661;SDS011;5379;51.034;7.006;2023-07-20T19:35:45;0.40;;;0.40;;
10661;SDS011;5379;51.034;7.006;2023-07-20T19:38:12;0.40;;;0.40;;
10661;SDS011;5379;51.034;7.006;2023-07-20T19:40:48;0.80;;;0.63;;
10661;SDS011;5379;51.034;7.006;2023-07-20T19:43:15;0.87;;;0.87;;
10661;SDS011;5379;51.034;7.006;2023-07-20T19:45:42;0.90;;;0.90;;
10661;SDS011;5379;51.034;7.006;2023-07-20T19:48:10;0.50;;;0.50;;
10661;SDS011;5379;51.034;7.006;2023-07-20T19:50:37;0.80;;;0.77;;
10661;SDS011;5379;51.034;7.006;2023-07-20T19:53:04;0.67;;;0.67;;
10661;SDS011;5379;51.034;7.006;2023-07-20T19:55:31;0.83;;;0.47;;
10661;SDS011;5379;51.034;7.006;2023-07-20T19:57:59;0.40;;;0.40;;
10661;SDS011;5379;51.034;7.006;2023-07-20T20:00:27;0.50;;;0.50;;
10661;SDS011;5379;51.034;7.006;2023-07-20T20:02:54;0.50;;;0.50;;
10661;SDS011;5379;51.034;7.006;2023-07-20T20:05:21;0.53;;;0.53;;
10661;SDS011;5379;51.034;7.006;2023-07-20T20:07:50;0.90;;;0.90;;